sensor_id;sensor_type;location;lat;lon;timestamp;P1;durP1;ratioP1;P2;durP2;ratioP2
11398;SDS011;5755;48.116;11.608;2022-07-03T00:00:02;22.95;;;18.42;;
11398;SDS011;5755;48.116;11.608;2022-07-03T00:02:44;19.63;;;16.80;;
11398;SDS011;5755;48.116;11.608;2022-07-03T00:05:19;20.95;;;16.80;;
11398;SDS011;5755;48.116;11.608;2022-07-03T00:08:07;8.98;;;6.70;;
11398;SDS011;5755;48.116;11.608;2022-07-03T00:10:39;13.15;;;11.25;;
11398;SDS011;5755;48.116;11.608;2022-07-03T00:13:08;14.40;;;11.55;;
11398;SDS011;5755;48.116;11.608;2022-07-03T00:15:35;7.15;;;5.82;;
11398;SDS011;5755;48.116;11.608;2022-07-03T00:18:14;9.93;;;5.93;;
11398;SDS011;5755;48.116;11.608;2022-07-03T00:20:44;5.53;;;4.72;;
11398;SDS011;5755;48.116;11.608;2022-07-03T00:23:35;8.35;;;4.55;;
11398;SDS011;5755;48.116;11.608;2022-07-03T00:26:06;7.30;;;4.90;;
11398;SDS011;5755;48.116;11.608;2022-07-03T00:28:38;6.70;;;4.43;;
11398;SDS011;5755;48.116;11.608;2022-07-03T00:31:07;10.63;;;8.00;;
11398;SDS011;5755;48.116;11.608;2022-07-03T00:33:35;7.07;;;6.15;;
11398;SDS011;5755;48.116;11.608;2022-07-03T00:36:10;5.93;;;5.00;;
11398;SDS011;5755;48.116;11.608;2022-07-03T00:38:38;4.68;;;3.67;;
11398;SDS011;5755;48.116;11.608;2022-07-03T00:41:06;5.78;;;3.60;;
11398;SDS011;5755;48.116;11.608;2022-07-03T00:43:33;6.00;;;3.75;;
11398;SDS011;5755;48.116;11.608;2022-07-03T00:46:03;6.25;;;3.67;;
11398;SDS011;5755;48.116;11.608;2022-07-03T00:48:38;7.57;;;6.80;;
11398;SDS011;5755;48.116;11.608;2022-07-03T00:51:07;8.88;;;7.05;;
11398;SDS011;5755;48.116;11.608;2022-07-03T00:53:40;8.63;;;7.15;;
11398;SDS011;5755;48.116;11.608;2022-07-03T00:59:07;6.63;;;5.03;;
11398;SDS011;5755;48.116;11.608;2022-07-03T01:01:44;4.30;;;3.38;;
11398;SDS011;5755;48.116;11.608;2022-07-03T01:04:21;4.60;;;3.00;;
11398;SDS011;5755;48.116;11.608;2022-07-03T01:06:57;6.93;;;3.90;;
11398;SDS011;5755;48.116;11.608;2022-07-03T01:09:42;7.57;;;6.78;;
11398;SDS011;5755;48.116;11.608;2022-07-03T01:12:30;11.55;;;8.05;;
11398;SDS011;5755;48.116;11.608;2022-07-03T01:15:10;8.48;;;4.97;;
11398;SDS011;5755;48.116;11.608;2022-07-03T01:17:48;6.68;;;4.45;;
11398;SDS011;5755;48.116;11.608;2022-07-03T01:26:35;4.25;;;3.20;;
11398;SDS011;5755;48.116;11.608;2022-07-03T01:29:08;6.32;;;3.75;;
11398;SDS011;5755;48.116;11.608;2022-07-03T01:31:48;3.90;;;3.05;;
11398;SDS011;5755;48.116;11.608;2022-07-03T01:34:28;7.43;;;5.90;;
11398;SDS011;5755;48.116;11.608;2022-07-03T01:37:02;6.10;;;4.65;;
11398;SDS011;5755;48.116;11.608;2022-07-03T01:39:44;5.70;;;3.05;;
11398;SDS011;5755;48.116;11.608;2022-07-03T01:42:22;3.60;;;3.08;;
11398;SDS011;5755;48.116;11.608;2022-07-03T01:44:51;6.15;;;3.83;;
11398;SDS011;5755;48.116;11.608;2022-07-03T01:47:19;4.10;;;3.25;;
11398;SDS011;5755;48.116;11.608;2022-07-03T01:49:49;4.50;;;4.10;;
11398;SDS011;5755;48.116;11.608;2022-07-03T01:52:17;7.18;;;4.70;;
11398;SDS011;5755;48.116;11.608;2022-07-03T01:54:50;6.40;;;3.17;;
11398;SDS011;5755;48.116;11.608;2022-07-03T02:00:08;4.18;;;2.90;;
11398;SDS011;5755;48.116;11.608;2022-07-03T02:02:37;5.60;;;3.15;;
11398;SDS011;5755;48.116;11.608;2022-07-03T02:05:09;4.43;;;3.33;;
11398;SDS011;5755;48.116;11.608;2022-07-03T02:07:52;5.10;;;4.60;;
11398;SDS011;5755;48.116;11.608;2022-07-03T02:10:27;4.15;;;3.75;;
11398;SDS011;5755;48.116;11.608;2022-07-03T02:13:05;4.25;;;3.38;;
11398;SDS011;5755;48.116;11.608;2022-07-03T02:15:38;3.97;;;2.67;;
11398;SDS011;5755;48.116;11.608;2022-07-03T02:18:24;3.15;;;2.60;;
11398;SDS011;5755;48.116;11.608;2022-07-03T02:21:10;3.92;;;3.05;;
11398;SDS011;5755;48.116;11.608;2022-07-03T02:23:43;5.22;;;3.58;;
11398;SDS011;5755;48.116;11.608;2022-07-03T02:26:20;2.58;;;2.38;;
11398;SDS011;5755;48.116;11.608;2022-07-03T02:29:05;4.53;;;2.38;;
11398;SDS011;5755;48.116;11.608;2022-07-03T02:34:52;3.13;;;2.85;;
11398;SDS011;5755;48.116;11.608;2022-07-03T02:37:31;3.35;;;3.03;;
11398;SDS011;5755;48.116;11.608;2022-07-03T02:40:06;3.40;;;2.75;;
11398;SDS011;5755;48.116;11.608;2022-07-03T02:42:39;3.35;;;2.65;;
11398;SDS011;5755;48.116;11.608;2022-07-03T02:45:16;4.30;;;2.90;;
11398;SDS011;5755;48.116;11.608;2022-07-03T02:47:46;2.90;;;2.70;;
11398;SDS011;5755;48.116;11.608;2022-07-03T02:53:15;3.25;;;2.70;;
11398;SDS011;5755;48.116;11.608;2022-07-03T02:55:50;2.92;;;2.67;;
11398;SDS011;5755;48.116;11.608;2022-07-03T02:58:40;7.75;;;3.60;;
11398;SDS011;5755;48.116;11.608;2022-07-03T03:01:20;2.90;;;2.70;;
11398;SDS011;5755;48.116;11.608;2022-07-03T03:07:13;6.00;;;2.60;;
11398;SDS011;5755;48.116;11.608;2022-07-03T03:09:45;2.70;;;2.50;;
11398;SDS011;5755;48.116;11.608;2022-07-03T03:12:14;3.40;;;3.10;;
11398;SDS011;5755;48.116;11.608;2022-07-03T03:14:51;4.28;;;2.80;;
11398;SDS011;5755;48.116;11.608;2022-07-03T03:17:28;4.20;;;3.05;;
11398;SDS011;5755;48.116;11.608;2022-07-03T03:20:02;2.78;;;2.53;;
11398;SDS011;5755;48.116;11.608;2022-07-03T03:25:32;4.07;;;2.55;;
11398;SDS011;5755;48.116;11.608;2022-07-03T03:27:59;4.38;;;2.50;;
11398;SDS011;5755;48.116;11.608;2022-07-03T03:30:32;2.88;;;2.67;;
11398;SDS011;5755;48.116;11.608;2022-07-03T03:33:10;3.47;;;2.63;;
11398;SDS011;5755;48.116;11.608;2022-07-03T03:35:44;3.90;;;2.53;;
11398;SDS011;5755;48.116;11.608;2022-07-03T03:38:11;3.38;;;3.08;;
11398;SDS011;5755;48.116;11.608;2022-07-03T03:40:38;4.03;;;3.22;;
11398;SDS011;5755;48.116;11.608;2022-07-03T03:43:08;3.88;;;3.47;;
11398;SDS011;5755;48.116;11.608;2022-07-03T03:45:35;2.97;;;2.63;;
11398;SDS011;5755;48.116;11.608;2022-07-03T03:48:10;3.28;;;2.97;;
11398;SDS011;5755;48.116;11.608;2022-07-03T03:50:37;5.53;;;2.88;;
11398;SDS011;5755;48.116;11.608;2022-07-03T03:53:08;4.07;;;3.10;;
11398;SDS011;5755;48.116;11.608;2022-07-03T03:58:44;3.03;;;2.80;;
11398;SDS011;5755;48.116;11.608;2022-07-03T04:01:11;3.50;;;2.90;;
11398;SDS011;5755;48.116;11.608;2022-07-03T04:03:46;2.92;;;2.72;;
11398;SDS011;5755;48.116;11.608;2022-07-03T04:06:14;2.72;;;2.53;;
11398;SDS011;5755;48.116;11.608;2022-07-03T04:08:56;3.13;;;2.83;;
11398;SDS011;5755;48.116;11.608;2022-07-03T04:11:23;4.47;;;2.90;;
11398;SDS011;5755;48.116;11.608;2022-07-03T04:13:50;3.53;;;2.63;;
11398;SDS011;5755;48.116;11.608;2022-07-03T04:16:17;4.90;;;2.90;;
11398;SDS011;5755;48.116;11.608;2022-07-03T04:18:52;4.80;;;2.83;;
11398;SDS011;5755;48.116;11.608;2022-07-03T04:21:20;6.40;;;2.95;;
11398;SDS011;5755;48.116;11.608;2022-07-03T04:23:50;5.63;;;2.92;;
11398;SDS011;5755;48.116;11.608;2022-07-03T04:26:26;2.90;;;2.60;;
11398;SDS011;5755;48.116;11.608;2022-07-03T04:28:53;3.30;;;2.70;;
11398;SDS011;5755;48.116;11.608;2022-07-03T04:31:20;5.13;;;2.75;;
11398;SDS011;5755;48.116;11.608;2022-07-03T04:36:32;3.35;;;2.40;;
11398;SDS011;5755;48.116;11.608;2022-07-03T04:39:02;3.75;;;2.88;;
11398;SDS011;5755;48.116;11.608;2022-07-03T04:41:38;3.00;;;2.35;;
11398;SDS011;5755;48.116;11.608;2022-07-03T04:44:05;4.85;;;2.60;;
11398;SDS011;5755;48.116;11.608;2022-07-03T04:46:32;3.13;;;2.83;;
11398;SDS011;5755;48.116;11.608;2022-07-03T04:49:10;3.17;;;2.88;;
11398;SDS011;5755;48.116;11.608;2022-07-03T04:51:37;2.80;;;2.60;;
11398;SDS011;5755;48.116;11.608;2022-07-03T04:54:04;2.95;;;2.65;;
11398;SDS011;5755;48.116;11.608;2022-07-03T04:56:31;2.40;;;2.20;;
11398;SDS011;5755;48.116;11.608;2022-07-03T04:59:02;4.15;;;2.78;;
11398;SDS011;5755;48.116;11.608;2022-07-03T05:07:48;3.60;;;2.45;;
11398;SDS011;5755;48.116;11.608;2022-07-03T05:10:15;3.22;;;2.30;;
11398;SDS011;5755;48.116;11.608;2022-07-03T05:12:56;2.92;;;2.30;;
11398;SDS011;5755;48.116;11.608;2022-07-03T05:15:32;2.35;;;2.17;;
11398;SDS011;5755;48.116;11.608;2022-07-03T05:17:59;3.47;;;2.30;;
11398;SDS011;5755;48.116;11.608;2022-07-03T05:23:52;2.55;;;2.35;;
11398;SDS011;5755;48.116;11.608;2022-07-03T05:26:20;2.40;;;2.20;;
11398;SDS011;5755;48.116;11.608;2022-07-03T05:28:47;4.35;;;2.30;;
11398;SDS011;5755;48.116;11.608;2022-07-03T05:31:20;2.28;;;2.08;;
11398;SDS011;5755;48.116;11.608;2022-07-03T05:33:47;2.58;;;2.10;;
11398;SDS011;5755;48.116;11.608;2022-07-03T05:42:14;3.15;;;1.98;;
11398;SDS011;5755;48.116;11.608;2022-07-03T05:44:50;2.42;;;2.10;;
11398;SDS011;5755;48.116;11.608;2022-07-03T05:47:26;3.22;;;2.08;;
11398;SDS011;5755;48.116;11.608;2022-07-03T05:49:54;2.10;;;1.90;;
11398;SDS011;5755;48.116;11.608;2022-07-03T05:52:32;2.08;;;1.88;;
11398;SDS011;5755;48.116;11.608;2022-07-03T05:55:01;2.17;;;2.00;;
11398;SDS011;5755;48.116;11.608;2022-07-03T05:57:44;2.20;;;1.90;;
11398;SDS011;5755;48.116;11.608;2022-07-03T06:00:12;3.95;;;1.92;;
11398;SDS011;5755;48.116;11.608;2022-07-03T06:02:40;1.90;;;1.80;;
11398;SDS011;5755;48.116;11.608;2022-07-03T06:05:08;2.45;;;2.10;;
11398;SDS011;5755;48.116;11.608;2022-07-03T06:07:38;2.85;;;1.98;;
11398;SDS011;5755;48.116;11.608;2022-07-03T06:10:10;2.10;;;2.00;;
11398;SDS011;5755;48.116;11.608;2022-07-03T06:12:38;3.80;;;2.10;;
11398;SDS011;5755;48.116;11.608;2022-07-03T06:15:05;1.95;;;1.83;;
11398;SDS011;5755;48.116;11.608;2022-07-03T06:17:50;3.42;;;1.85;;
11398;SDS011;5755;48.116;11.608;2022-07-03T06:20:21;2.80;;;2.58;;
11398;SDS011;5755;48.116;11.608;2022-07-03T06:22:50;2.00;;;1.90;;
11398;SDS011;5755;48.116;11.608;2022-07-03T06:25:34;1.80;;;1.67;;
11398;SDS011;5755;48.116;11.608;2022-07-03T06:28:02;2.08;;;1.80;;
11398;SDS011;5755;48.116;11.608;2022-07-03T06:30:32;3.15;;;1.95;;
11398;SDS011;5755;48.116;11.608;2022-07-03T06:32:59;1.80;;;1.70;;
11398;SDS011;5755;48.116;11.608;2022-07-03T06:35:26;3.15;;;2.85;;
11398;SDS011;5755;48.116;11.608;2022-07-03T06:37:53;2.40;;;1.98;;
11398;SDS011;5755;48.116;11.608;2022-07-03T06:40:40;4.05;;;1.85;;
11398;SDS011;5755;48.116;11.608;2022-07-03T06:43:07;4.30;;;1.80;;
11398;SDS011;5755;48.116;11.608;2022-07-03T06:51:35;3.33;;;1.90;;
11398;SDS011;5755;48.116;11.608;2022-07-03T06:54:02;3.92;;;2.00;;
11398;SDS011;5755;48.116;11.608;2022-07-03T06:56:40;1.88;;;1.77;;
11398;SDS011;5755;48.116;11.608;2022-07-03T06:59:07;1.83;;;1.73;;
11398;SDS011;5755;48.116;11.608;2022-07-03T07:01:44;1.88;;;1.75;;
11398;SDS011;5755;48.116;11.608;2022-07-03T07:04:20;2.05;;;1.80;;
11398;SDS011;5755;48.116;11.608;2022-07-03T07:06:47;1.70;;;1.60;;
11398;SDS011;5755;48.116;11.608;2022-07-03T07:09:20;1.90;;;1.60;;
11398;SDS011;5755;48.116;11.608;2022-07-03T07:11:58;2.00;;;1.80;;
11398;SDS011;5755;48.116;11.608;2022-07-03T07:14:25;2.22;;;1.90;;
11398;SDS011;5755;48.116;11.608;2022-07-03T07:16:52;2.05;;;1.92;;
11398;SDS011;5755;48.116;11.608;2022-07-03T07:19:19;2.22;;;1.70;;
11398;SDS011;5755;48.116;11.608;2022-07-03T07:21:46;1.60;;;1.50;;
11398;SDS011;5755;48.116;11.608;2022-07-03T07:24:13;3.17;;;1.80;;
11398;SDS011;5755;48.116;11.608;2022-07-03T07:26:40;2.85;;;1.90;;
11398;SDS011;5755;48.116;11.608;2022-07-03T07:35:03;1.85;;;1.75;;
11398;SDS011;5755;48.116;11.608;2022-07-03T07:37:30;2.20;;;2.00;;
11398;SDS011;5755;48.116;11.608;2022-07-03T07:39:57;2.50;;;1.80;;
11398;SDS011;5755;48.116;11.608;2022-07-03T07:42:32;2.90;;;2.10;;
11398;SDS011;5755;48.116;11.608;2022-07-03T07:45:01;2.10;;;1.90;;
11398;SDS011;5755;48.116;11.608;2022-07-03T07:47:28;1.95;;;1.75;;
11398;SDS011;5755;48.116;11.608;2022-07-03T07:50:09;5.63;;;1.80;;
11398;SDS011;5755;48.116;11.608;2022-07-03T07:52:38;3.85;;;1.92;;
11398;SDS011;5755;48.116;11.608;2022-07-03T07:55:06;1.80;;;1.70;;
11398;SDS011;5755;48.116;11.608;2022-07-03T07:57:33;2.75;;;1.70;;
11398;SDS011;5755;48.116;11.608;2022-07-03T08:00:07;2.63;;;1.95;;
11398;SDS011;5755;48.116;11.608;2022-07-03T08:02:36;2.10;;;2.00;;
11398;SDS011;5755;48.116;11.608;2022-07-03T08:05:44;2.10;;;1.90;;
11398;SDS011;5755;48.116;11.608;2022-07-03T08:08:20;2.15;;;1.90;;
11398;SDS011;5755;48.116;11.608;2022-07-03T08:10:48;2.83;;;1.70;;
11398;SDS011;5755;48.116;11.608;2022-07-03T08:13:26;3.78;;;1.90;;
11398;SDS011;5755;48.116;11.608;2022-07-03T08:15:58;2.60;;;2.40;;
11398;SDS011;5755;48.116;11.608;2022-07-03T08:18:26;3.60;;;2.47;;
11398;SDS011;5755;48.116;11.608;2022-07-03T08:20:55;14.73;;;13.13;;
11398;SDS011;5755;48.116;11.608;2022-07-03T08:23:27;2.30;;;2.08;;
11398;SDS011;5755;48.116;11.608;2022-07-03T08:25:57;2.80;;;2.55;;
11398;SDS011;5755;48.116;11.608;2022-07-03T08:28:32;2.20;;;2.03;;
11398;SDS011;5755;48.116;11.608;2022-07-03T08:31:01;2.60;;;2.40;;
11398;SDS011;5755;48.116;11.608;2022-07-03T08:33:49;3.90;;;3.60;;
11398;SDS011;5755;48.116;11.608;2022-07-03T08:36:33;3.97;;;2.25;;
11398;SDS011;5755;48.116;11.608;2022-07-03T08:39:05;3.03;;;2.83;;
11398;SDS011;5755;48.116;11.608;2022-07-03T08:41:39;3.00;;;2.80;;
11398;SDS011;5755;48.116;11.608;2022-07-03T08:44:07;2.88;;;2.67;;
11398;SDS011;5755;48.116;11.608;2022-07-03T08:46:46;4.03;;;3.40;;
11398;SDS011;5755;48.116;11.608;2022-07-03T08:49:20;4.30;;;3.90;;
11398;SDS011;5755;48.116;11.608;2022-07-03T08:51:49;3.40;;;3.20;;
11398;SDS011;5755;48.116;11.608;2022-07-03T08:54:20;3.50;;;3.20;;
11398;SDS011;5755;48.116;11.608;2022-07-03T08:56:50;3.80;;;3.53;;
11398;SDS011;5755;48.116;11.608;2022-07-03T08:59:21;4.03;;;3.70;;
11398;SDS011;5755;48.116;11.608;2022-07-03T09:01:51;5.03;;;4.65;;
11398;SDS011;5755;48.116;11.608;2022-07-03T09:04:20;4.20;;;4.00;;
11398;SDS011;5755;48.116;11.608;2022-07-03T09:07:03;4.25;;;3.95;;
11398;SDS011;5755;48.116;11.608;2022-07-03T09:09:50;4.47;;;4.18;;
11398;SDS011;5755;48.116;11.608;2022-07-03T09:12:26;5.65;;;5.25;;
11398;SDS011;5755;48.116;11.608;2022-07-03T09:14:56;4.40;;;4.10;;
11398;SDS011;5755;48.116;11.608;2022-07-03T09:17:34;4.20;;;3.90;;
11398;SDS011;5755;48.116;11.608;2022-07-03T09:25:51;5.35;;;5.05;;
11398;SDS011;5755;48.116;11.608;2022-07-03T09:28:21;4.90;;;4.55;;
11398;SDS011;5755;48.116;11.608;2022-07-03T09:33:51;4.78;;;4.57;;
11398;SDS011;5755;48.116;11.608;2022-07-03T09:39:16;4.70;;;4.40;;
11398;SDS011;5755;48.116;11.608;2022-07-03T09:41:57;4.55;;;4.35;;
11398;SDS011;5755;48.116;11.608;2022-07-03T09:44:39;5.10;;;4.80;;
11398;SDS011;5755;48.116;11.608;2022-07-03T09:47:09;5.18;;;4.95;;
11398;SDS011;5755;48.116;11.608;2022-07-03T09:49:49;5.35;;;5.00;;
11398;SDS011;5755;48.116;11.608;2022-07-03T09:52:33;4.93;;;4.60;;
11398;SDS011;5755;48.116;11.608;2022-07-03T09:55:16;4.80;;;4.50;;
11398;SDS011;5755;48.116;11.608;2022-07-03T09:57:45;5.20;;;4.90;;
11398;SDS011;5755;48.116;11.608;2022-07-03T10:00:27;5.20;;;4.80;;
11398;SDS011;5755;48.116;11.608;2022-07-03T10:02:58;5.07;;;4.88;;
11398;SDS011;5755;48.116;11.608;2022-07-03T10:05:29;5.60;;;5.30;;
11398;SDS011;5755;48.116;11.608;2022-07-03T10:07:57;5.72;;;5.32;;
11398;SDS011;5755;48.116;11.608;2022-07-03T10:10:27;5.93;;;5.53;;
11398;SDS011;5755;48.116;11.608;2022-07-03T10:12:57;4.93;;;4.57;;
11398;SDS011;5755;48.116;11.608;2022-07-03T10:15:27;5.35;;;5.00;;
11398;SDS011;5755;48.116;11.608;2022-07-03T10:18:04;5.65;;;5.22;;
11398;SDS011;5755;48.116;11.608;2022-07-03T10:20:41;5.70;;;5.40;;
11398;SDS011;5755;48.116;11.608;2022-07-03T10:23:21;5.90;;;5.60;;
11398;SDS011;5755;48.116;11.608;2022-07-03T10:25:50;5.40;;;5.07;;
11398;SDS011;5755;48.116;11.608;2022-07-03T10:28:19;5.22;;;4.82;;
11398;SDS011;5755;48.116;11.608;2022-07-03T10:30:59;4.93;;;4.63;;
11398;SDS011;5755;48.116;11.608;2022-07-03T10:33:26;4.90;;;4.60;;
11398;SDS011;5755;48.116;11.608;2022-07-03T10:38:57;4.63;;;4.43;;
11398;SDS011;5755;48.116;11.608;2022-07-03T10:41:34;4.00;;;3.80;;
11398;SDS011;5755;48.116;11.608;2022-07-03T10:44:20;4.50;;;4.13;;
11398;SDS011;5755;48.116;11.608;2022-07-03T10:47:05;3.60;;;3.30;;
11398;SDS011;5755;48.116;11.608;2022-07-03T10:50:04;4.32;;;3.17;;
11398;SDS011;5755;48.116;11.608;2022-07-03T10:52:36;4.72;;;3.33;;
11398;SDS011;5755;48.116;11.608;2022-07-03T10:55:04;3.10;;;2.90;;
11398;SDS011;5755;48.116;11.608;2022-07-03T10:57:33;3.28;;;3.08;;
11398;SDS011;5755;48.116;11.608;2022-07-03T11:00:17;2.85;;;2.70;;
11398;SDS011;5755;48.116;11.608;2022-07-03T11:02:45;2.60;;;2.50;;
11398;SDS011;5755;48.116;11.608;2022-07-03T11:05:22;4.15;;;2.30;;
11398;SDS011;5755;48.116;11.608;2022-07-03T11:10:45;2.17;;;2.03;;
11398;SDS011;5755;48.116;11.608;2022-07-03T11:13:32;1.80;;;1.70;;
11398;SDS011;5755;48.116;11.608;2022-07-03T11:16:03;4.18;;;1.50;;
11398;SDS011;5755;48.116;11.608;2022-07-03T11:18:30;2.42;;;1.70;;
11398;SDS011;5755;48.116;11.608;2022-07-03T11:24:10;4.10;;;1.50;;
11398;SDS011;5755;48.116;11.608;2022-07-03T11:29:48;1.35;;;1.25;;
11398;SDS011;5755;48.116;11.608;2022-07-03T11:38:22;1.40;;;1.30;;
11398;SDS011;5755;48.116;11.608;2022-07-03T11:40:59;1.58;;;1.48;;
11398;SDS011;5755;48.116;11.608;2022-07-03T11:43:45;3.95;;;1.50;;
11398;SDS011;5755;48.116;11.608;2022-07-03T11:46:17;1.33;;;1.23;;
11398;SDS011;5755;48.116;11.608;2022-07-03T11:48:45;4.30;;;3.33;;
11398;SDS011;5755;48.116;11.608;2022-07-03T11:51:15;8.90;;;3.33;;
11398;SDS011;5755;48.116;11.608;2022-07-03T11:53:42;6.35;;;3.35;;
11398;SDS011;5755;48.116;11.608;2022-07-03T11:56:16;3.63;;;1.95;;
11398;SDS011;5755;48.116;11.608;2022-07-03T11:58:51;1.10;;;1.10;;
11398;SDS011;5755;48.116;11.608;2022-07-03T12:01:33;1.80;;;1.70;;
11398;SDS011;5755;48.116;11.608;2022-07-03T12:04:09;2.60;;;2.15;;
11398;SDS011;5755;48.116;11.608;2022-07-03T12:06:40;2.00;;;1.40;;
11398;SDS011;5755;48.116;11.608;2022-07-03T12:09:12;2.95;;;1.30;;
11398;SDS011;5755;48.116;11.608;2022-07-03T12:14:40;2.90;;;1.67;;
11398;SDS011;5755;48.116;11.608;2022-07-03T12:20:00;1.15;;;1.10;;
11398;SDS011;5755;48.116;11.608;2022-07-03T12:22:28;3.58;;;1.45;;
11398;SDS011;5755;48.116;11.608;2022-07-03T12:24:57;1.42;;;1.33;;
11398;SDS011;5755;48.116;11.608;2022-07-03T12:27:41;2.00;;;1.52;;
11398;SDS011;5755;48.116;11.608;2022-07-03T12:30:27;1.42;;;1.30;;
11398;SDS011;5755;48.116;11.608;2022-07-03T12:32:57;2.22;;;1.40;;
11398;SDS011;5755;48.116;11.608;2022-07-03T12:38:30;1.92;;;1.52;;
11398;SDS011;5755;48.116;11.608;2022-07-03T12:41:04;1.40;;;1.30;;
11398;SDS011;5755;48.116;11.608;2022-07-03T12:43:37;2.65;;;1.80;;
11398;SDS011;5755;48.116;11.608;2022-07-03T12:48:51;2.05;;;1.90;;
11398;SDS011;5755;48.116;11.608;2022-07-03T12:54:21;2.53;;;2.33;;
11398;SDS011;5755;48.116;11.608;2022-07-03T13:00:08;1.40;;;1.30;;
11398;SDS011;5755;48.116;11.608;2022-07-03T13:02:39;3.00;;;1.60;;
11398;SDS011;5755;48.116;11.608;2022-07-03T13:05:21;2.13;;;1.60;;
11398;SDS011;5755;48.116;11.608;2022-07-03T13:07:52;1.35;;;1.25;;
11398;SDS011;5755;48.116;11.608;2022-07-03T13:10:21;2.47;;;1.80;;
11398;SDS011;5755;48.116;11.608;2022-07-03T13:12:51;1.73;;;1.58;;
11398;SDS011;5755;48.116;11.608;2022-07-03T13:15:23;3.10;;;2.63;;
11398;SDS011;5755;48.116;11.608;2022-07-03T13:17:58;3.30;;;1.60;;
11398;SDS011;5755;48.116;11.608;2022-07-03T13:20:27;2.42;;;1.60;;
11398;SDS011;5755;48.116;11.608;2022-07-03T13:22:57;2.03;;;1.60;;
11398;SDS011;5755;48.116;11.608;2022-07-03T13:25:34;1.73;;;1.50;;
11398;SDS011;5755;48.116;11.608;2022-07-03T13:28:21;3.60;;;1.85;;
11398;SDS011;5755;48.116;11.608;2022-07-03T13:30:49;3.65;;;2.50;;
11398;SDS011;5755;48.116;11.608;2022-07-03T13:33:16;5.90;;;2.92;;
11398;SDS011;5755;48.116;11.608;2022-07-03T13:35:45;5.15;;;3.17;;
11398;SDS011;5755;48.116;11.608;2022-07-03T13:41:27;1.88;;;1.50;;
11398;SDS011;5755;48.116;11.608;2022-07-03T13:43:54;1.50;;;1.40;;
11398;SDS011;5755;48.116;11.608;2022-07-03T13:46:23;1.60;;;1.50;;
11398;SDS011;5755;48.116;11.608;2022-07-03T13:48:50;3.95;;;1.98;;
11398;SDS011;5755;48.116;11.608;2022-07-03T13:51:33;4.28;;;2.13;;
11398;SDS011;5755;48.116;11.608;2022-07-03T13:53:59;2.00;;;1.73;;
11398;SDS011;5755;48.116;11.608;2022-07-03T13:56:27;3.55;;;2.00;;
11398;SDS011;5755;48.116;11.608;2022-07-03T13:58:57;1.77;;;1.35;;
11398;SDS011;5755;48.116;11.608;2022-07-03T14:01:28;2.33;;;1.90;;
11398;SDS011;5755;48.116;11.608;2022-07-03T14:04:03;3.17;;;2.00;;
11398;SDS011;5755;48.116;11.608;2022-07-03T14:06:33;1.80;;;1.70;;
11398;SDS011;5755;48.116;11.608;2022-07-03T14:11:58;3.90;;;1.60;;
11398;SDS011;5755;48.116;11.608;2022-07-03T14:14:34;4.30;;;1.83;;
11398;SDS011;5755;48.116;11.608;2022-07-03T14:17:08;1.60;;;1.50;;
11398;SDS011;5755;48.116;11.608;2022-07-03T14:19:48;4.13;;;1.90;;
11398;SDS011;5755;48.116;11.608;2022-07-03T14:22:16;2.88;;;1.60;;
11398;SDS011;5755;48.116;11.608;2022-07-03T14:27:27;4.82;;;2.45;;
11398;SDS011;5755;48.116;11.608;2022-07-03T14:30:12;3.83;;;1.75;;
11398;SDS011;5755;48.116;11.608;2022-07-03T14:33:04;2.10;;;1.90;;
11398;SDS011;5755;48.116;11.608;2022-07-03T14:35:33;3.65;;;1.50;;
11398;SDS011;5755;48.116;11.608;2022-07-03T14:38:01;1.92;;;1.40;;
11398;SDS011;5755;48.116;11.608;2022-07-03T14:43:41;3.80;;;1.63;;
11398;SDS011;5755;48.116;11.608;2022-07-03T14:46:09;2.35;;;1.77;;
11398;SDS011;5755;48.116;11.608;2022-07-03T14:48:52;3.90;;;1.70;;
11398;SDS011;5755;48.116;11.608;2022-07-03T14:51:21;2.28;;;1.33;;
11398;SDS011;5755;48.116;11.608;2022-07-03T14:53:48;2.67;;;1.67;;
11398;SDS011;5755;48.116;11.608;2022-07-03T14:59:22;1.88;;;1.50;;
11398;SDS011;5755;48.116;11.608;2022-07-03T15:15:45;2.03;;;1.85;;
11398;SDS011;5755;48.116;11.608;2022-07-03T15:18:16;2.88;;;1.70;;
11398;SDS011;5755;48.116;11.608;2022-07-03T15:20:58;4.57;;;1.98;;
11398;SDS011;5755;48.116;11.608;2022-07-03T15:23:33;3.42;;;1.80;;
11398;SDS011;5755;48.116;11.608;2022-07-03T15:26:00;3.63;;;1.88;;
11398;SDS011;5755;48.116;11.608;2022-07-03T15:28:27;3.97;;;1.90;;
11398;SDS011;5755;48.116;11.608;2022-07-03T15:30:57;4.30;;;2.10;;
11398;SDS011;5755;48.116;11.608;2022-07-03T15:36:24;2.65;;;2.03;;
11398;SDS011;5755;48.116;11.608;2022-07-03T15:38:54;2.67;;;1.90;;
11398;SDS011;5755;48.116;11.608;2022-07-03T15:41:28;2.97;;;1.90;;
11398;SDS011;5755;48.116;11.608;2022-07-03T15:44:03;5.82;;;1.73;;
11398;SDS011;5755;48.116;11.608;2022-07-03T15:46:43;2.83;;;1.80;;
11398;SDS011;5755;48.116;11.608;2022-07-03T15:49:25;4.30;;;2.00;;
11398;SDS011;5755;48.116;11.608;2022-07-03T15:54:47;1.98;;;1.77;;
11398;SDS011;5755;48.116;11.608;2022-07-03T16:03:13;1.80;;;1.70;;
11398;SDS011;5755;48.116;11.608;2022-07-03T16:08:53;4.68;;;1.95;;
11398;SDS011;5755;48.116;11.608;2022-07-03T16:11:20;5.18;;;1.85;;
11398;SDS011;5755;48.116;11.608;2022-07-03T16:13:48;2.55;;;1.80;;
11398;SDS011;5755;48.116;11.608;2022-07-03T16:22:27;1.92;;;1.77;;
11398;SDS011;5755;48.116;11.608;2022-07-03T16:27:45;3.80;;;1.63;;
11398;SDS011;5755;48.116;11.608;2022-07-03T16:30:12;2.92;;;1.85;;
11398;SDS011;5755;48.116;11.608;2022-07-03T16:32:57;4.82;;;1.80;;
11398;SDS011;5755;48.116;11.608;2022-07-03T16:35:39;3.33;;;2.10;;
11398;SDS011;5755;48.116;11.608;2022-07-03T16:38:17;5.25;;;4.00;;
11398;SDS011;5755;48.116;11.608;2022-07-03T16:40:52;5.00;;;2.25;;
11398;SDS011;5755;48.116;11.608;2022-07-03T16:46:15;4.50;;;2.00;;
11398;SDS011;5755;48.116;11.608;2022-07-03T16:48:47;4.30;;;2.28;;
11398;SDS011;5755;48.116;11.608;2022-07-03T16:51:16;4.35;;;2.15;;
11398;SDS011;5755;48.116;11.608;2022-07-03T16:53:51;5.13;;;2.15;;
11398;SDS011;5755;48.116;11.608;2022-07-03T16:56:29;4.70;;;1.77;;
11398;SDS011;5755;48.116;11.608;2022-07-03T16:58:57;4.78;;;2.65;;
11398;SDS011;5755;48.116;11.608;2022-07-03T17:01:27;3.08;;;2.10;;
11398;SDS011;5755;48.116;11.608;2022-07-03T17:03:55;2.17;;;1.92;;
11398;SDS011;5755;48.116;11.608;2022-07-03T17:06:27;4.72;;;2.30;;
11398;SDS011;5755;48.116;11.608;2022-07-03T17:08:54;3.33;;;2.40;;
11398;SDS011;5755;48.116;11.608;2022-07-03T17:11:41;4.22;;;2.00;;
11398;SDS011;5755;48.116;11.608;2022-07-03T17:14:08;4.47;;;1.95;;
11398;SDS011;5755;48.116;11.608;2022-07-03T17:16:46;2.40;;;1.92;;
11398;SDS011;5755;48.116;11.608;2022-07-03T17:19:22;5.80;;;2.22;;
11398;SDS011;5755;48.116;11.608;2022-07-03T17:21:51;3.00;;;1.80;;
11398;SDS011;5755;48.116;11.608;2022-07-03T17:24:21;6.32;;;2.63;;
11398;SDS011;5755;48.116;11.608;2022-07-03T17:26:52;2.47;;;1.60;;
11398;SDS011;5755;48.116;11.608;2022-07-03T17:29:23;4.13;;;1.83;;
11398;SDS011;5755;48.116;11.608;2022-07-03T17:31:55;2.08;;;1.85;;
11398;SDS011;5755;48.116;11.608;2022-07-03T17:34:22;4.53;;;2.55;;
11398;SDS011;5755;48.116;11.608;2022-07-03T17:39:39;2.05;;;1.85;;
11398;SDS011;5755;48.116;11.608;2022-07-03T17:42:16;1.88;;;1.52;;
11398;SDS011;5755;48.116;11.608;2022-07-03T17:44:48;2.88;;;1.95;;
11398;SDS011;5755;48.116;11.608;2022-07-03T17:47:17;4.05;;;1.98;;
11398;SDS011;5755;48.116;11.608;2022-07-03T17:49:51;2.85;;;1.73;;
11398;SDS011;5755;48.116;11.608;2022-07-03T17:52:27;3.38;;;1.90;;
11398;SDS011;5755;48.116;11.608;2022-07-03T17:57:44;4.07;;;2.05;;
11398;SDS011;5755;48.116;11.608;2022-07-03T18:00:12;2.47;;;1.65;;
11398;SDS011;5755;48.116;11.608;2022-07-03T18:02:46;3.97;;;2.10;;
11398;SDS011;5755;48.116;11.608;2022-07-03T18:05:15;2.65;;;2.15;;
11398;SDS011;5755;48.116;11.608;2022-07-03T18:07:49;2.72;;;2.20;;